Maroochydore, Queensland

11:33 AM AEST on March 01, 2015 (GMT +1000)
Coolum - Pt Arkwright | Change Station
CLOSE
Current Station
Personal Weather Station
Location: Coolum Beach, QLD
Elevation: 207 ft
Nearby Weather Stations

Elev 207 ft 26.54 °S, 153.10 °E | Updated 9 minutes ago

Scattered Clouds
Scattered Clouds
83.1 °F
Feels Like 88 °F
N
4.5
Wind Variable Wind from ESE
Gusts 4.5 mph

Today
High -- | Low -- °F
--% Chance of Precip.
Yesterday
High -- | Low -- °F
Precip. -- in
5:40 AM 6:19 PM
Waxing Gibbous, 81% visible
Pressure 29.83 in
Visibility 6.2 miles
Clouds Scattered Clouds 3000 ft
Heat Index 88 °F
Dew Point 71 °F
Humidity 68%
Rainfall 0.00 in
Snow Depth Not available.
UV 9 out of 12
Pollen Not available.
Air Quality Not available.
Flu Activity Not available.
METAR YBBN 010100Z 01007KT 9999 SCT030 28/21 Q1010 NOSIG

More Conditions Fewer Conditions

Pressure 29.83 in
Visibility 6.2 miles
Clouds Scattered Clouds 3000 ft
Heat Index 88 °F
Dew Point 71 °F
Humidity 68%
Rainfall 0.00 in
Snow Depth Not available.
UV 9 out of 12
Pollen Not available.
Air Quality Not available.
Flu Activity Not available.
METAR YBBN 010100Z 01007KT 9999 SCT030 28/21 Q1010 NOSIG

More Conditions Fewer Conditions

10-Day Weather Forecast

Almanac

Astronomy

Mar. 01, 2015 Rise Set
Actual Time
Civil Twilight
Nautical Twilight
Astronomical Twilight
Moon
Length of Visible Light
Length of Day
Tomorrow will be .
, % of the Moon is Illuminated

Today's Extremes

Country Highs Country Lows

Community

WunderPhotos

Upload Photos

1,801,233 photos uploaded!

WunderBlogs® & News

Nearby

Air Quality

  Air Quality AQ Index Pollutant
Not available.

Snow Depth

Station Depth Elevation

Earthquake Activity

City Distance Mag. Time & Date
Minimum magnitude displayed is 2.5.

Coastal Water Temperatures

Place Temperature

Nearby Weather Stations